KSQL

San Carlos Airport

San Carlos, California, USA
METAR KSQL 181400Z AUTO 00000KT 10SM CLR 14/11 A3005 RMK AO2
Observed Flight Rules
Aug-18 @ 14:00 UTC (53 minutes ago) Visual Flight Rules
Visibility Clouds
10 miles
  • Clear skies
Temperatures Readings
Current 14°C / 57°F
Dewpoint 11°C / 52°F
Humidity 82%
Altimeter 30.05" Hg
Pressure 1018 hPa
Elevation 1
METAR KSQL 181400Z AUTO 00000KT 10SM CLR 14/11 A3005 RMK AO2
Observed Flight Rules
Aug-18 @ 14:00 UTC
(53 minutes ago)
VFR
Clouds
  • Clear skies
Temperature Dewpoint
14°C / 57°F 11°C / 52°F
Humidity Altimeter Pressure
82% 30.05" Hg 1018 hPa